This is the latest recevied weather packets stored in our database for station/object SP9POL-3. If no packets are shown the sender has not sent any weather packets the latest 10 day(s).
| Time | Temp. | Humidity | Pressure | Rain* | Wind** | Luminosity | Snow |
|---|---|---|---|---|---|---|---|
| 1777699396 | 8.89° C | 56% | 1024.1 hPa | - | - | - | - |
| 1777697716 | 7.78° C | 60% | 1024.1 hPa | - | - | - | - |
| 1777696036 | 6.67° C | 66% | 1024.1 hPa | - | - | - | - |
| 1777694356 | 6.11° C | 67% | 1024.1 hPa | - | - | - | - |
| 1777692676 | 6.11° C | 66% | 1024 hPa | - | - | - | - |
| 1777690996 | 6.67° C | 65% | 1024 hPa | - | - | - | - |
| 1777689316 | 7.22° C | 63% | 1024 hPa | - | - | - | - |
| 1777687635 | 7.22° C | 62% | 1024.1 hPa | - | - | - | - |
| 1777685955 | 7.78° C | 60% | 1024.1 hPa | - | - | - | - |
| 1777684275 | 7.78° C | 59% | 1024 hPa | - | - | - | - |
| 1777682595 | 8.33° C | 59% | 1024 hPa | - | - | - | - |
| 1777680915 | 8.33° C | 58% | 1024.1 hPa | - | - | - | - |
| 1777679235 | 8.89° C | 57% | 1024.1 hPa | - | - | - | - |
| 1777677555 | 8.89° C | 55% | 1024.1 hPa | - | - | - | - |
| 1777675875 | 9.44° C | 54% | 1024.2 hPa | - | - | - | - |
| 1777674195 | 9.44° C | 53% | 1024.2 hPa | - | - | - | - |
| 1777672514 | 10° C | 51% | 1024.2 hPa | - | - | - | - |
| 1777670834 | 10.56° C | 50% | 1024 hPa | - | - | - | - |
| 1777669154 | 10.56° C | 48% | 1024 hPa | - | - | - | - |
| 1777667474 | 11.11° C | 46% | 1023.9 hPa | - | - | - | - |
| 1777665794 | 11.67° C | 44% | 1024 hPa | - | - | - | - |
| 1777664114 | 12.22° C | 41% | 1024 hPa | - | - | - | - |
| 1777662434 | 12.78° C | 39% | 1023.9 hPa | - | - | - | - |
| 1777660754 | 13.89° C | 36% | 1023.6 hPa | - | - | - | - |
| 1777659074 | 15° C | 32% | 1023.3 hPa | - | - | - | - |
* Rain since midnight (hover to see other rain measurements)
** Current wind speed in m/s (hover to see current wind gust speed)